Round Mountain, TX (78663)

5:36 PM CDT on August 30, 2015 (GMT -0500)
Horseshoe Bay | | Change Station
CLOSE
Current Station
Airport
Location: Horseshoe Bay,
Elevation: 1093 ft
Nearby Weather Stations

Elev 1093 ft 30.53 °N, 98.36 °W | Updated 21 minutes ago

Partly Cloudy
Partly Cloudy
73 °F
Feels Like 73 °F
N
10
Wind Variable Wind from SSE

Today
High -- | Low -- °F
--% Chance of Precip.
Yesterday
High -- | Low -- °F
Precip. -- in
7:09 AM 7:59 PM
Full, 98% visible
Pressure 29.99 in
Visibility 3.0 miles
Clouds Scattered Clouds 1800 ft
Scattered Clouds 4800 ft
Overcast 7000 ft
Dew Point 68 °F
Humidity 84%
Rainfall 0.25 in
Snow Depth Not available.
UV 1 out of 12
Pollen 6.30 out of 12
Air Quality Not available.
Flu Activity Not available.
METAR KDZB 302215Z AUTO 15009KT 3SM +VCTSRA SCT018 SCT048 OVC070 23/20 A2999 RMK AO2 LTG DSNT NE SW AND W P0007 T02270199
Pressure 29.99 in
Visibility 3.0 miles
Clouds Scattered Clouds 1800 ft
Scattered Clouds 4800 ft
Overcast 7000 ft
Dew Point 68 °F
Humidity 84%
Rainfall 0.25 in
Snow Depth Not available.
UV 1 out of 12
Pollen 6.30 out of 12
Air Quality Not available.
Flu Activity Not available.
METAR KDZB 302215Z AUTO 15009KT 3SM +VCTSRA SCT018 SCT048 OVC070 23/20 A2999 RMK AO2 LTG DSNT NE SW AND W P0007 T02270199
Nowcast | as of 4:47 PM CDT on August 30, 2015

Isolated showers and thunderstorms will be possible across the region through sunset. Rainfall amounts will generally be 1/4 to 1/2 inch with a few locations getting up to one inch. Best chances for rainfall will be along and to the west of Interstate 35. Main threats will be cloud to ground lightning...gusty winds and brief heavy rainfall. East of Interstate 35 a few light showers are possible. Rainfall amounts will be less than one tenth of an inch.

×

10-Day Weather Forecast

×

Almanac

Astronomy

Aug. 30, 2015 Rise Set
Actual Time
Civil Twilight
Nautical Twilight
Astronomical Twilight
Moon
Length of Visible Light
Length of Day
Tomorrow will be .
, % of the Moon is Illuminated

Today's Extremes

State Highs State Lows

Community

WunderPhotos

Upload Photos

1,851,074 photos uploaded!

WunderBlogs® & News

Nearby

Air Quality

  Air Quality AQ Index Pollutant
Not available.

Snow Depth

Station Depth Elevation

Earthquake Activity

City Distance Mag. Time & Date
Minimum magnitude displayed is 2.5.

Coastal Water Temperatures

Place Temperature

Stations

Nearby Weather Stations

Station Location Temp. Windchill Dew Point Humidity Wind Precip. Elev Updated Type